Time;durP1;ratioP1;P1;durP2;ratioP2;P2;SDS_P1;SDS_P2;PMS_P1;PMS_P2;Temp;Humidity;BMP_temperature;BMP_pressure;BME280_temperature;BME280_humidity;BME280_pressure;Samples;Min_cycle;Max_cycle;Signal;HPM_P1;HPM_P2
2023/08/07 00:01:36;;;;;;;9.73;2.93;;;13.00;99.90;;;;;;5092680;28;20178;-75
2023/08/07 00:04:02;;;;;;;3.93;3.03;;;13.00;99.90;;;;;;5093166;28;20247;-75
2023/08/07 00:06:28;;;;;;;6.60;3.20;;;13.10;99.90;;;;;;5093247;28;20200;-75
2023/08/07 00:08:53;;;;;;;5.80;3.63;;;13.10;99.90;;;;;;5093144;28;20202;-75
2023/08/07 00:11:19;;;;;;;8.77;3.23;;;13.20;99.90;;;;;;5093172;28;20172;-75
2023/08/07 00:13:45;;;;;;;7.87;2.90;;;13.20;99.90;;;;;;5093038;28;20293;-74
2023/08/07 00:16:10;;;;;;;8.77;3.20;;;13.20;99.90;;;;;;5092875;28;20654;-75
2023/08/07 00:18:36;;;;;;;6.23;2.80;;;13.30;99.90;;;;;;5094782;28;20247;-75
2023/08/07 00:21:02;;;;;;;8.10;3.10;;;13.40;99.90;;;;;;5096998;28;20199;-75
2023/08/07 00:23:27;;;;;;;7.33;3.20;;;13.30;99.90;;;;;;5097034;28;20617;-74
2023/08/07 00:25:53;;;;;;;8.27;3.20;;;13.30;99.90;;;;;;5096882;28;20211;-76
2023/08/07 00:28:18;;;;;;;2.70;2.33;;;13.30;99.90;;;;;;5096500;28;20172;-75
2023/08/07 00:30:44;;;;;;;8.17;3.10;;;13.30;99.90;;;;;;5096514;28;20248;-75
2023/08/07 00:33:10;;;;;;;9.47;3.37;;;13.20;99.90;;;;;;5078487;28;20164;-75
2023/08/07 00:35:35;;;;;;;6.37;3.00;;;13.20;99.90;;;;;;5096597;28;20272;-75
2023/08/07 00:38:01;;;;;;;9.30;2.73;;;13.20;99.90;;;;;;5096589;28;20169;-75
2023/08/07 00:40:26;;;;;;;5.10;2.80;;;13.20;99.90;;;;;;5078381;28;20168;-75
2023/08/07 00:42:52;;;;;;;8.20;3.27;;;13.20;99.90;;;;;;5094728;28;20258;-75
2023/08/07 00:45:18;;;;;;;5.30;3.00;;;13.20;99.90;;;;;;5096118;28;20196;-76
2023/08/07 00:47:43;;;;;;;7.47;3.33;;;13.20;99.90;;;;;;5096393;28;20172;-75
2023/08/07 00:50:10;;;;;;;6.17;3.60;;;13.20;99.90;;;;;;5096417;28;20172;-75
2023/08/07 00:52:36;;;;;;;9.73;3.10;;;13.20;99.90;;;;;;5095238;28;20187;-74
2023/08/07 00:55:03;;;;;;;7.43;3.10;;;13.10;99.90;;;;;;5096180;28;20192;-75
2023/08/07 00:57:30;;;;;;;7.97;2.93;;;13.10;99.90;;;;;;5096093;28;20172;-75
2023/08/07 00:59:56;;;;;;;10.30;2.97;;;13.00;99.90;;;;;;5095829;28;20633;-76
2023/08/07 01:02:21;;;;;;;10.23;3.10;;;13.00;99.90;;;;;;5096328;28;20168;-75
2023/08/07 01:04:47;;;;;;;6.93;3.03;;;13.00;99.90;;;;;;5095925;28;20267;-76
2023/08/07 01:07:12;;;;;;;9.73;3.03;;;13.00;99.90;;;;;;5095015;28;20212;-74
2023/08/07 01:09:38;;;;;;;4.37;3.00;;;13.00;99.90;;;;;;5096020;28;20164;-75
2023/08/07 01:12:16;;;;;;;6.80;2.70;;;12.90;99.90;;;;;;5095961;28;20553;-76
2023/08/07 01:14:49;;;;;;;10.20;3.03;;;12.90;99.90;;;;;;5095705;28;20198;-74
2023/08/07 01:17:16;;;;;;;9.73;2.47;;;12.90;99.90;;;;;;5095846;28;20196;-76
2023/08/07 01:19:42;;;;;;;4.60;2.77;;;12.90;99.90;;;;;;5095855;28;20176;-75
2023/08/07 01:22:09;;;;;;;7.23;3.00;;;12.90;99.90;;;;;;5095708;28;20500;-75
2023/08/07 01:24:36;;;;;;;3.90;2.60;;;12.90;99.90;;;;;;5095586;28;20176;-74
2023/08/07 01:27:17;;;;;;;7.63;3.00;;;12.80;99.90;;;;;;5095887;28;20247;-74
2023/08/07 01:30:09;;;;;;;8.63;3.20;;;12.80;99.90;;;;;;5095179;28;20523;-75
2023/08/07 01:32:49;;;;;;;4.77;2.83;;;12.80;99.90;;;;;;5048157;28;20180;-75
2023/08/07 01:35:17;;;;;;;8.03;3.27;;;12.70;99.90;;;;;;5095534;28;20198;-74
2023/08/07 01:37:45;;;;;;;4.30;2.60;;;12.60;99.90;;;;;;5095427;28;20265;-74
2023/08/07 01:40:12;;;;;;;7.33;2.57;;;12.60;99.90;;;;;;5094228;28;20168;-74
2023/08/07 01:42:38;;;;;;;6.30;2.77;;;12.60;99.90;;;;;;5093545;28;20285;-74
2023/08/07 01:45:07;;;;;;;4.10;2.70;;;12.60;99.90;;;;;;5095631;28;20168;-75
2023/08/07 01:47:32;;;;;;;4.00;2.47;;;12.60;99.90;;;;;;5095164;28;20190;-74
2023/08/07 01:49:58;;;;;;;5.00;2.70;;;12.60;99.90;;;;;;5095326;28;20525;-75
2023/08/07 01:52:23;;;;;;;4.37;2.53;;;12.70;99.90;;;;;;5095300;28;20196;-75
2023/08/07 01:54:49;;;;;;;11.37;2.77;;;12.60;99.90;;;;;;5095117;28;20647;-75
2023/08/07 01:57:14;;;;;;;7.13;2.70;;;12.60;99.90;;;;;;5094807;28;20192;-74
2023/08/07 01:59:40;;;;;;;4.60;2.43;;;12.70;99.90;;;;;;5095133;28;20503;-74
2023/08/07 02:02:06;;;;;;;6.13;2.70;;;12.60;99.90;;;;;;5095141;28;20190;-75
2023/08/07 02:04:32;;;;;;;6.13;2.90;;;12.60;99.90;;;;;;5095076;28;20168;-75
2023/08/07 02:06:58;;;;;;;5.17;3.10;;;12.60;99.90;;;;;;5094876;28;20203;-74
2023/08/07 02:09:23;;;;;;;3.80;2.67;;;12.50;99.90;;;;;;5094911;28;20195;-75
2023/08/07 02:11:49;;;;;;;7.10;2.43;;;12.50;99.90;;;;;;5094414;28;20168;-74
2023/08/07 02:14:15;;;;;;;3.27;2.63;;;12.60;99.90;;;;;;5076638;28;20187;-75
2023/08/07 02:16:40;;;;;;;5.20;2.77;;;12.60;99.90;;;;;;5094615;28;20644;-74
2023/08/07 02:19:06;;;;;;;5.03;2.70;;;12.50;99.90;;;;;;5094794;28;20213;-74
2023/08/07 02:21:32;;;;;;;9.30;2.50;;;12.50;99.90;;;;;;5094677;28;20183;-74
2023/08/07 02:23:58;;;;;;;5.23;2.87;;;12.50;99.90;;;;;;5094535;28;20172;-74
2023/08/07 02:26:23;;;;;;;5.53;2.93;;;12.50;99.90;;;;;;5094095;28;20682;-75
2023/08/07 02:28:49;;;;;;;4.40;2.30;;;12.50;99.90;;;;;;5094332;28;20647;-76
2023/08/07 02:31:15;;;;;;;7.03;2.50;;;12.50;99.90;;;;;;5094323;28;20183;-74
2023/08/07 02:33:41;;;;;;;4.83;2.67;;;12.50;99.90;;;;;;5094384;28;20188;-74
2023/08/07 02:36:07;;;;;;;5.17;2.53;;;12.50;99.90;;;;;;5094414;28;20199;-75
2023/08/07 02:38:33;;;;;;;4.77;2.33;;;12.50;99.90;;;;;;5092882;28;20217;-74
2023/08/07 02:40:58;;;;;;;7.43;2.50;;;12.50;99.90;;;;;;5092742;28;20223;-73
2023/08/07 02:43:24;;;;;;;4.47;2.40;;;12.50;99.90;;;;;;5094177;28;20199;-74
2023/08/07 02:45:50;;;;;;;7.67;2.80;;;12.50;99.90;;;;;;5092689;28;20199;-75
2023/08/07 02:48:17;;;;;;;4.43;2.30;;;12.40;99.90;;;;;;5094019;28;20171;-75
2023/08/07 02:50:43;;;;;;;6.47;2.60;;;12.40;99.90;;;;;;5094083;28;20615;-74
2023/08/07 02:53:09;;;;;;;6.10;2.50;;;12.40;99.90;;;;;;5094174;28;20176;-75
2023/08/07 02:55:35;;;;;;;6.67;2.80;;;12.40;99.90;;;;;;5093563;28;20171;-74
2023/08/07 02:58:00;;;;;;;6.70;2.50;;;12.40;99.90;;;;;;5093940;28;20164;-74
2023/08/07 03:00:26;;;;;;;3.73;2.30;;;12.40;99.90;;;;;;5093929;28;20243;-74
2023/08/07 03:02:51;;;;;;;4.70;2.73;;;12.40;99.90;;;;;;5093785;28;20168;-74
2023/08/07 03:05:17;;;;;;;7.10;2.90;;;12.40;99.90;;;;;;5093750;28;20191;-75
2023/08/07 03:07:43;;;;;;;7.13;2.53;;;12.50;99.90;;;;;;5092535;28;20182;-75
2023/08/07 03:10:08;;;;;;;2.67;2.13;;;12.50;99.90;;;;;;5093454;28;20172;-75
2023/08/07 03:12:34;;;;;;;12.53;2.40;;;12.50;99.90;;;;;;5093658;28;20259;-75
2023/08/07 03:15:00;;;;;;;4.87;2.77;;;12.50;99.90;;;;;;5093199;28;20651;-75
2023/08/07 03:17:25;;;;;;;4.03;2.50;;;12.50;99.90;;;;;;5093474;28;20222;-74
2023/08/07 03:19:51;;;;;;;2.97;2.20;;;12.60;99.90;;;;;;5093672;28;20251;-75
2023/08/07 03:22:16;;;;;;;9.20;2.60;;;12.50;99.90;;;;;;5092055;28;20722;-73
2023/08/07 03:24:47;;;;;;;12.17;3.10;;;12.50;99.90;;;;;;5093237;28;20171;-75
2023/08/07 03:27:13;;;;;;;5.23;2.37;;;12.50;99.90;;;;;;5093431;28;20238;-75
2023/08/07 03:29:38;;;;;;;4.93;2.60;;;12.40;99.90;;;;;;5093360;28;20168;-74
2023/08/07 03:32:04;;;;;;;10.43;2.53;;;12.40;99.90;;;;;;5092034;28;20645;-75
2023/08/07 03:34:29;;;;;;;5.93;2.70;;;12.40;99.90;;;;;;5091849;28;20586;-75
2023/08/07 03:36:55;;;;;;;7.23;2.80;;;12.50;99.90;;;;;;5091967;28;20182;-75
2023/08/07 03:39:20;;;;;;;5.10;2.63;;;12.60;99.90;;;;;;5093117;28;20178;-75
2023/08/07 03:41:46;;;;;;;7.73;2.67;;;12.60;99.90;;;;;;5093047;28;20211;-74
2023/08/07 03:44:12;;;;;;;6.37;2.70;;;12.60;99.90;;;;;;5093279;28;20180;-74
2023/08/07 03:46:37;;;;;;;8.70;3.27;;;12.60;99.90;;;;;;5092809;28;20267;-74
2023/08/07 03:49:03;;;;;;;8.67;2.90;;;12.60;99.90;;;;;;5091684;28;20172;-75
2023/08/07 03:51:30;;;;;;;6.83;2.80;;;12.70;99.90;;;;;;5092996;28;20662;-75
2023/08/07 03:53:56;;;;;;;5.67;2.80;;;12.70;99.90;;;;;;5094713;28;20192;-74
2023/08/07 03:56:21;;;;;;;3.67;2.87;;;12.70;99.90;;;;;;5097201;28;20241;-75
2023/08/07 03:58:49;;;;;;;4.47;2.63;;;12.80;99.90;;;;;;5097061;28;20182;-75
2023/08/07 04:01:14;;;;;;;4.67;2.70;;;12.80;99.90;;;;;;5097230;28;20163;-75
2023/08/07 04:03:40;;;;;;;5.97;2.70;;;12.80;99.90;;;;;;5096954;28;20225;-75
2023/08/07 04:06:06;;;;;;;3.77;2.70;;;12.70;99.90;;;;;;5096986;28;20207;-74
2023/08/07 04:08:31;;;;;;;4.77;2.77;;;12.70;99.90;;;;;;5095227;28;20172;-74
2023/08/07 04:11:01;;;;;;;6.27;2.83;;;12.60;99.90;;;;;;5096452;28;20526;-74
2023/08/07 04:13:28;;;;;;;5.30;2.90;;;12.60;99.90;;;;;;5095683;28;20171;-74
2023/08/07 04:15:53;;;;;;;8.07;3.10;;;12.60;99.90;;;;;;5097033;28;20237;-74
2023/08/07 04:18:19;;;;;;;5.97;3.00;;;12.60;99.90;;;;;;5096662;28;20179;-74
2023/08/07 04:20:54;;;;;;;6.77;2.83;;;12.60;99.90;;;;;;5096661;28;20203;-74
2023/08/07 04:23:20;;;;;;;7.17;2.93;;;12.60;99.90;;;;;;5094577;28;20179;-75
2023/08/07 04:25:47;;;;;;;4.93;2.80;;;12.70;99.90;;;;;;5096454;28;20210;-75
2023/08/07 04:28:13;;;;;;;5.70;2.57;;;12.70;99.90;;;;;;5096318;28;20168;-74
2023/08/07 04:30:39;;;;;;;4.20;2.40;;;12.70;99.90;;;;;;5096598;28;20250;-75
2023/08/07 04:33:04;;;;;;;4.70;2.70;;;12.70;99.90;;;;;;5096026;28;20179;-75
2023/08/07 04:35:30;;;;;;;6.63;2.70;;;12.70;99.90;;;;;;5096377;28;20190;-75
2023/08/07 04:37:56;;;;;;;10.07;3.07;;;12.70;99.90;;;;;;5096092;28;20217;-75
2023/08/07 04:40:22;;;;;;;11.07;3.10;;;12.70;99.90;;;;;;5096289;28;20184;-75
2023/08/07 04:42:49;;;;;;;6.67;2.80;;;12.70;99.90;;;;;;5095845;28;20234;-75
2023/08/07 04:45:15;;;;;;;7.23;2.77;;;12.60;99.90;;;;;;5095414;28;20179;-75
2023/08/07 04:47:41;;;;;;;6.90;2.87;;;12.70;99.90;;;;;;5096274;28;20172;-75
2023/08/07 04:50:08;;;;;;;4.30;2.70;;;12.80;99.90;;;;;;5096223;28;20160;-75
2023/08/07 04:52:34;;;;;;;7.13;3.07;;;12.90;99.90;;;;;;5095620;28;20251;-75
2023/08/07 04:54:59;;;;;;;9.07;3.37;;;12.80;99.90;;;;;;5095528;28;20198;-75
2023/08/07 04:57:25;;;;;;;6.40;2.80;;;12.90;99.90;;;;;;5095896;28;20171;-75
2023/08/07 04:59:52;;;;;;;6.23;2.90;;;13.00;99.90;;;;;;5095989;28;20628;-75
2023/08/07 05:02:18;;;;;;;4.03;2.53;;;13.50;99.90;;;;;;5095765;28;20195;-76
2023/08/07 05:04:43;;;;;;;7.93;2.90;;;14.30;95.50;;;;;;5093576;28;20218;-76
2023/08/07 05:07:09;;;;;;;5.50;2.30;;;15.30;57.10;;;;;;5094936;28;20678;-75
2023/08/07 05:09:35;;;;;;;7.10;2.63;;;16.00;25.90;;;;;;5095163;28;20329;-75
2023/08/07 05:12:01;;;;;;;8.17;2.63;;;16.90;13.60;;;;;;5095805;28;20566;-77
2023/08/07 05:14:27;;;;;;;6.25;2.85;;;17.80;1.00;;;;;;5095526;28;20172;-77
2023/08/07 05:16:52;;;;;;;3.60;2.60;;;18.60;1.00;;;;;;5093989;28;20197;-76
2023/08/07 05:19:18;;;;;;;3.80;2.28;;;19.40;1.00;;;;;;5095403;28;20210;-76
2023/08/07 05:21:44;;;;;;;5.47;2.20;;;20.00;1.00;;;;;;5094958;28;20164;-76
2023/08/07 05:24:09;;;;;;;3.15;2.50;;;20.80;1.00;;;;;;5095168;28;20183;-75
2023/08/07 05:26:35;;;;;;;3.28;2.15;;;21.10;1.00;;;;;;5093646;28;20218;-75
2023/08/07 05:29:00;;;;;;;6.88;2.78;;;20.70;1.00;;;;;;5095070;28;20262;-75
2023/08/07 05:31:26;;;;;;;3.75;2.40;;;21.50;1.00;;;;;;5093839;28;20179;-76
2023/08/07 05:33:52;;;;;;;7.93;2.45;;;21.30;1.00;;;;;;5094724;28;20179;-75
2023/08/07 05:36:18;;;;;;;4.95;2.45;;;22.10;1.00;;;;;;5095157;28;20164;-76
2023/08/07 05:38:43;;;;;;;6.05;2.40;;;22.80;99.90;;;;;;5095061;28;20168;-75
2023/08/07 05:41:09;;;;;;;6.72;2.22;;;22.60;2.00;;;;;;5094566;28;20214;-75
2023/08/07 05:43:35;;;;;;;5.32;2.47;;;22.40;99.90;;;;;;5095035;28;20666;-75
2023/08/07 05:46:01;;;;;;;7.05;2.53;;;23.60;1.00;;;;;;5095130;28;20298;-75
2023/08/07 05:48:26;;;;;;;3.10;2.20;;;24.20;1.00;;;;;;5094057;28;20171;-75
2023/08/07 05:50:52;;;;;;;4.63;2.60;;;24.70;99.90;;;;;;5094446;28;20172;-74
2023/08/07 05:53:19;;;;;;;4.55;2.30;;;24.70;96.90;;;;;;5093726;28;20282;-76
2023/08/07 05:55:44;;;;;;;4.03;2.30;;;24.50;99.90;;;;;;5094225;28;20236;-75
2023/08/07 05:58:10;;;;;;;3.85;2.50;;;24.60;1.00;;;;;;5094438;28;20636;-75
2023/08/07 06:00:36;;;;;;;3.40;2.08;;;24.90;1.00;;;;;;5094564;28;20164;-75
2023/08/07 06:03:01;;;;;;;6.88;2.25;;;25.60;1.00;;;;;;5093529;28;20172;-76
2023/08/07 06:05:27;;;;;;;5.68;2.90;;;26.00;99.90;;;;;;5093107;28;20282;-76
2023/08/07 06:07:53;;;;;;;3.75;2.53;;;25.90;1.00;;;;;;5093847;28;20198;-75
2023/08/07 06:10:18;;;;;;;4.85;2.42;;;26.10;1.00;;;;;;5094534;28;20237;-76
2023/08/07 06:12:44;;;;;;;3.25;2.40;;;26.00;47.40;;;;;;5093809;28;20219;-75
2023/08/07 06:15:10;;;;;;;6.68;2.38;;;26.40;57.60;;;;;;5092726;28;20172;-75
2023/08/07 06:17:35;;;;;;;7.38;2.20;;;26.40;99.90;;;;;;5092028;28;20182;-76
2023/08/07 06:20:01;;;;;;;5.70;2.38;;;27.90;99.90;;;;;;5094013;28;20624;-75
2023/08/07 06:22:26;;;;;;;7.38;2.72;;;28.70;1.00;;;;;;5093803;28;20217;-76
2023/08/07 06:24:52;;;;;;;9.23;3.13;;;28.70;1.00;;;;;;5094111;28;20225;-75
2023/08/07 06:27:18;;;;;;;5.10;2.30;;;28.40;1.00;;;;;;5092437;28;20207;-75
2023/08/07 06:29:43;;;;;;;3.10;2.38;;;28.70;1.00;;;;;;5094009;28;20230;-75
2023/08/07 06:32:10;;;;;;;7.22;2.67;;;27.90;1.00;;;;;;5093732;28;21012;-75
2023/08/07 06:34:37;;;;;;;3.75;2.33;;;28.30;63.00;;;;;;5093877;28;20239;-76
2023/08/07 06:37:04;;;;;;;3.22;2.28;;;27.70;1.00;;;;;;5093702;28;20174;-76
2023/08/07 06:39:31;;;;;;;5.47;2.10;;;28.70;1.00;;;;;;5094037;28;20200;-75
2023/08/07 06:41:56;;;;;;;2.53;2.30;;;29.60;1.00;;;;;;5092970;28;20246;-76
2023/08/07 06:44:22;;;;;;;2.83;2.13;;;30.30;1.00;;;;;;5093572;28;20619;-76
2023/08/07 06:46:48;;;;;;;7.40;2.65;;;30.40;1.00;;;;;;5092009;28;20663;-76
2023/08/07 06:49:13;;;;;;;5.05;2.50;;;30.30;1.00;;;;;;5091963;28;20179;-76
2023/08/07 06:51:39;;;;;;;6.60;2.28;;;30.10;1.00;;;;;;5093628;28;20182;-76
2023/08/07 06:54:04;;;;;;;4.85;2.33;;;30.30;1.00;;;;;;5093590;28;20183;-76
2023/08/07 06:56:30;;;;;;;4.68;2.38;;;31.00;1.00;;;;;;5093511;28;20172;-75
2023/08/07 06:58:55;;;;;;;7.43;2.20;;;30.50;1.00;;;;;;5093459;28;20175;-76
2023/08/07 07:01:21;;;;;;;5.93;2.30;;;30.10;1.00;;;;;;5092803;28;20260;-76
2023/08/07 07:03:52;;;;;;;3.42;2.33;;;28.50;1.00;;;;;;5092737;28;20164;-77
2023/08/07 07:06:18;;;;;;;5.50;2.30;;;28.50;1.00;;;;;;5093248;28;20196;-76
2023/08/07 07:08:43;;;;;;;4.40;2.60;;;29.50;1.00;;;;;;5093150;28;20195;-75
2023/08/07 07:11:09;;;;;;;5.18;2.10;;;30.00;1.00;;;;;;5092894;28;20174;-76
2023/08/07 07:13:34;;;;;;;2.47;2.28;;;30.50;1.00;;;;;;5093485;28;20275;-76
2023/08/07 07:16:00;;;;;;;3.25;2.58;;;30.60;1.00;;;;;;5091517;28;20180;-76
2023/08/07 07:18:26;;;;;;;3.38;2.08;;;30.30;1.00;;;;;;5093263;28;20183;-75
2023/08/07 07:21:00;;;;;;;6.50;2.80;;;30.30;1.00;;;;;;5093008;28;20281;-75
2023/08/07 07:23:26;;;;;;;5.65;2.47;;;29.80;1.00;;;;;;5092997;28;20241;-75
2023/08/07 07:25:52;;;;;;;3.35;2.25;;;30.10;1.00;;;;;;5092994;28;20207;-75
2023/08/07 07:28:17;;;;;;;3.25;2.13;;;30.40;1.00;;;;;;5092752;28;20213;-76
2023/08/07 07:30:43;;;;;;;3.58;2.05;;;30.70;1.00;;;;;;5092775;28;20167;-75
2023/08/07 07:33:09;;;;;;;5.25;2.60;;;30.50;1.00;;;;;;5092621;28;20168;-75
2023/08/07 07:35:38;;;;;;;2.83;1.90;;;30.70;1.00;;;;;;5093251;28;20242;-76
2023/08/07 07:38:04;;;;;;;2.88;2.20;;;31.20;99.90;;;;;;5092856;28;20199;-75
2023/08/07 07:40:30;;;;;;;5.15;2.25;;;32.50;99.90;;;;;;5093301;28;20172;-77
2023/08/07 07:42:56;;;;;;;2.83;1.98;;;32.00;99.90;;;;;;5092510;28;20638;-75
2023/08/07 07:45:21;;;;;;;5.05;2.13;;;32.00;99.90;;;;;;5092306;28;20176;-75
2023/08/07 07:47:47;;;;;;;4.25;2.10;;;31.50;99.90;;;;;;5092934;28;20524;-75
2023/08/07 07:50:13;;;;;;;2.22;2.00;;;31.00;99.90;;;;;;5092426;28;20626;-78
2023/08/07 07:52:39;;;;;;;4.40;1.90;;;30.50;99.90;;;;;;5091961;28;20248;-78
2023/08/07 07:55:05;;;;;;;3.10;2.22;;;30.20;99.90;;;;;;5091365;28;20675;-77
2023/08/07 07:57:31;;;;;;;2.65;2.45;;;31.30;99.90;;;;;;5092589;28;20656;-79
2023/08/07 07:59:57;;;;;;;3.17;2.33;;;31.90;99.90;;;;;;5092523;28;20172;-78
2023/08/07 08:02:24;;;;;;;3.75;1.85;;;31.80;99.90;;;;;;5093069;28;20656;-78
2023/08/07 08:04:50;;;;;;;2.33;2.10;;;30.90;99.90;;;;;;5094294;28;20164;-80
2023/08/07 08:07:16;;;;;;;3.53;2.13;;;29.70;99.90;;;;;;5095214;28;20310;-81
2023/08/07 08:09:42;;;;;;;6.90;2.17;;;29.10;99.90;;;;;;5093235;28;20586;-79
2023/08/07 08:12:08;;;;;;;3.63;2.20;;;28.80;1.00;;;;;;5092480;28;20168;-78
2023/08/07 08:14:33;;;;;;;2.72;1.90;;;29.20;1.00;;;;;;5092237;28;20650;-78
2023/08/07 08:16:59;;;;;;;3.45;1.90;;;29.70;1.00;;;;;;5092626;28;20175;-78
2023/08/07 08:19:25;;;;;;;3.35;1.80;;;29.80;99.90;;;;;;5092794;28;20196;-78
2023/08/07 08:21:50;;;;;;;4.95;2.33;;;29.80;99.90;;;;;;5093010;28;20727;-79
2023/08/07 08:24:16;;;;;;;2.30;2.10;;;29.50;99.90;;;;;;5090876;28;20175;-80
2023/08/07 08:26:41;;;;;;;2.47;1.98;;;29.00;1.00;;;;;;5092397;28;20670;-80
2023/08/07 08:29:07;;;;;;;2.17;1.88;;;28.30;1.00;;;;;;5092393;28;20198;-81
2023/08/07 08:31:34;;;;;;;3.08;1.83;;;27.80;1.00;;;;;;5092037;28;20184;-80
2023/08/07 08:33:59;;;;;;;3.03;2.60;;;27.30;1.00;;;;;;5092779;28;20171;-79
2023/08/07 08:36:25;;;;;;;4.18;2.40;;;26.50;99.90;;;;;;5092445;28;20180;-80
2023/08/07 08:38:51;;;;;;;2.80;2.22;;;25.50;1.00;;;;;;5092950;28;20160;-81
2023/08/07 08:41:19;;;;;;;2.95;1.88;;;26.20;1.00;;;;;;5094741;28;20314;-80
2023/08/07 08:43:46;;;;;;;3.72;2.00;;;26.50;99.90;;;;;;5096351;28;20199;-81
2023/08/07 08:46:18;;;;;;;3.17;1.90;;;26.00;99.90;;;;;;5093477;28;20294;-79
2023/08/07 08:48:49;;;;;;;4.40;2.00;;;26.30;99.90;;;;;;5079950;28;20215;-79
2023/08/07 08:51:17;;;;;;;3.25;2.10;;;25.90;1.00;;;;;;5077894;28;20616;-77
2023/08/07 08:53:43;;;;;;;1.95;1.85;;;26.00;1.00;;;;;;5081421;28;20624;-78
2023/08/07 08:56:09;;;;;;;4.15;1.80;;;25.90;1.00;;;;;;5090148;28;20173;-79
2023/08/07 08:58:35;;;;;;;2.38;2.17;;;26.40;1.00;;;;;;5086178;28;20662;-83
2023/08/07 09:01:01;;;;;;;2.22;2.03;;;27.30;1.00;;;;;;5091461;28;20179;-79
2023/08/07 09:03:27;;;;;;;3.08;1.90;;;26.90;1.00;;;;;;5074956;28;20165;-79
2023/08/07 09:05:56;;;;;;;3.08;2.25;;;27.00;74.00;;;;;;5074657;28;20216;-79
2023/08/07 09:08:25;;;;;;;3.22;2.03;;;26.60;99.90;;;;;;5080600;28;20662;-78
2023/08/07 09:10:51;;;;;;;4.57;1.90;;;26.20;99.90;;;;;;5080616;28;20180;-78
2023/08/07 09:13:20;;;;;;;4.00;2.10;;;25.70;99.90;;;;;;5069479;28;20173;-77
2023/08/07 09:15:50;;;;;;;3.38;1.95;;;25.40;1.00;;;;;;5070054;28;20216;-78
2023/08/07 09:18:17;;;;;;;4.50;2.03;;;24.80;99.90;;;;;;5068897;28;20207;-78
2023/08/07 09:20:43;;;;;;;3.75;2.10;;;24.00;1.00;;;;;;5076745;28;20176;-79
2023/08/07 09:23:08;;;;;;;5.47;2.35;;;24.50;13.50;;;;;;5082086;28;20176;-79
2023/08/07 09:25:35;;;;;;;4.53;2.00;;;25.20;99.90;;;;;;5072056;28;20290;-78
2023/08/07 09:28:07;;;;;;;2.65;1.92;;;26.60;99.90;;;;;;5069700;28;20196;-76
2023/08/07 09:30:35;;;;;;;5.13;2.00;;;27.40;14.50;;;;;;5081156;28;20302;-79
2023/08/07 09:33:01;;;;;;;2.28;2.08;;;27.80;1.00;;;;;;5069619;28;20193;-78
2023/08/07 09:35:29;;;;;;;6.68;1.95;;;26.90;1.00;;;;;;5067407;28;20881;-79
2023/08/07 09:37:57;;;;;;;2.85;1.98;;;26.20;99.90;;;;;;5072484;28;20191;-76
2023/08/07 09:40:23;;;;;;;4.38;2.20;;;25.90;99.90;;;;;;5068992;28;20207;-79
2023/08/07 09:42:53;;;;;;;2.72;2.00;;;25.00;99.90;;;;;;5070656;28;20643;-78
2023/08/07 09:45:23;;;;;;;2.38;1.73;;;25.10;1.00;;;;;;5075555;28;20533;-79
2023/08/07 09:48:06;;;;;;;2.65;1.80;;;25.80;47.30;;;;;;5088316;28;20200;-78
2023/08/07 09:50:32;;;;;;;2.15;1.80;;;26.10;1.00;;;;;;5091450;28;20264;-79
2023/08/07 09:52:58;;;;;;;3.78;2.10;;;25.80;1.00;;;;;;5091981;28;20703;-77
2023/08/07 09:55:24;;;;;;;2.53;1.98;;;25.60;99.90;;;;;;5092538;28;20522;-78
2023/08/07 09:57:51;;;;;;;1.85;1.70;;;24.80;19.10;;;;;;5076572;28;20176;-80
2023/08/07 10:00:19;;;;;;;1.88;1.70;;;25.80;99.90;;;;;;5076154;28;20719;-78
2023/08/07 10:02:47;;;;;;;2.05;1.50;;;27.10;1.00;;;;;;5067975;28;20205;-80
2023/08/07 10:05:13;;;;;;;3.30;1.90;;;27.50;1.00;;;;;;5065396;28;20537;-79
2023/08/07 10:07:40;;;;;;;2.95;2.47;;;27.30;1.00;;;;;;5069922;28;20239;-78
2023/08/07 10:10:06;;;;;;;3.78;1.98;;;27.00;1.00;;;;;;5081119;28;20194;-78
2023/08/07 10:12:32;;;;;;;2.03;1.75;;;26.60;1.00;;;;;;5085560;28;20534;-80
2023/08/07 10:14:59;;;;;;;3.75;1.85;;;25.80;99.90;;;;;;5073359;28;20199;-80
2023/08/07 10:17:25;;;;;;;1.73;1.63;;;24.90;1.00;;;;;;5074068;28;20176;-78
2023/08/07 10:19:52;;;;;;;1.80;1.70;;;24.10;99.90;;;;;;5080095;28;20187;-79
2023/08/07 10:22:19;;;;;;;4.60;1.80;;;24.60;99.90;;;;;;5086480;28;20268;-79
2023/08/07 10:24:48;;;;;;;3.00;1.90;;;25.70;99.90;;;;;;5080895;28;20177;-80
2023/08/07 10:27:16;;;;;;;2.38;1.63;;;27.00;1.00;;;;;;5064448;28;20214;-81
2023/08/07 10:29:43;;;;;;;4.07;1.73;;;27.80;1.00;;;;;;5084956;28;20689;-81
2023/08/07 10:32:10;;;;;;;1.90;1.80;;;27.70;1.00;;;;;;5070621;28;20262;-80
2023/08/07 10:34:39;;;;;;;2.10;1.75;;;27.20;1.00;;;;;;5074964;28;20180;-80
2023/08/07 10:37:08;;;;;;;3.40;1.65;;;27.00;1.00;;;;;;5069636;28;20301;-79
2023/08/07 10:39:34;;;;;;;1.77;1.67;;;26.70;1.00;;;;;;5070216;28;20176;-78
2023/08/07 10:42:01;;;;;;;2.13;1.75;;;26.00;1.00;;;;;;5068618;28;20235;-80
2023/08/07 10:44:33;;;;;;;4.13;1.50;;;25.40;99.90;;;;;;5066569;28;20172;-79
2023/08/07 10:47:01;;;;;;;1.83;1.40;;;26.10;1.00;;;;;;5091652;28;20251;-81
2023/08/07 10:49:43;;;;;;;4.00;1.73;;;26.90;1.00;;;;;;5093134;28;20603;-79
2023/08/07 10:52:14;;;;;;;1.80;1.70;;;26.90;1.00;;;;;;5073525;28;20529;-79
2023/08/07 10:54:46;;;;;;;1.70;1.60;;;26.40;1.00;;;;;;5072544;28;20527;-79
2023/08/07 10:57:13;;;;;;;2.00;1.90;;;26.20;1.00;;;;;;5073810;28;21316;-80
2023/08/07 10:59:44;;;;;;;2.22;2.00;;;26.40;1.00;;;;;;5074403;28;20267;-81
2023/08/07 11:02:12;;;;;;;2.15;1.95;;;26.90;1.00;;;;;;5072768;28;20231;-80
2023/08/07 11:04:38;;;;;;;1.55;1.45;;;27.60;1.00;;;;;;5073277;28;20212;-80
2023/08/07 11:07:05;;;;;;;1.90;1.52;;;27.20;1.00;;;;;;5073421;28;20306;-80
2023/08/07 11:09:30;;;;;;;1.90;1.65;;;27.30;1.00;;;;;;5072667;28;20256;-80
2023/08/07 11:11:56;;;;;;;3.28;1.70;;;27.10;1.00;;;;;;5073977;28;20215;-80
2023/08/07 11:14:21;;;;;;;2.17;2.00;;;27.60;1.00;;;;;;5073336;28;20552;-79
2023/08/07 11:16:48;;;;;;;1.73;1.63;;;27.60;1.00;;;;;;5073364;28;20180;-80
2023/08/07 11:19:15;;;;;;;1.85;1.75;;;27.50;1.00;;;;;;5073209;28;20231;-81
2023/08/07 11:21:42;;;;;;;2.42;1.65;;;26.70;1.00;;;;;;5084805;28;20203;-81
2023/08/07 11:24:08;;;;;;;2.13;1.63;;;26.40;2.70;;;;;;5092538;28;20221;-80
2023/08/07 11:26:34;;;;;;;2.55;1.38;;;26.60;1.00;;;;;;5091775;28;20204;-79
2023/08/07 11:28:59;;;;;;;1.90;1.77;;;25.80;99.90;;;;;;5092780;28;20175;-79
2023/08/07 11:31:25;;;;;;;3.03;1.60;;;25.00;1.00;;;;;;5092797;28;20164;-78
2023/08/07 11:33:52;;;;;;;2.50;1.70;;;24.50;99.90;;;;;;5093081;28;20179;-79
2023/08/07 11:36:18;;;;;;;1.80;1.70;;;24.00;1.00;;;;;;5093267;28;20199;-78
2023/08/07 11:38:44;;;;;;;3.85;1.90;;;23.80;1.00;;;;;;5091867;28;20237;-80
2023/08/07 11:41:15;;;;;;;1.63;1.52;;;23.90;79.80;;;;;;5092311;28;20222;-79
2023/08/07 11:43:41;;;;;;;1.80;1.70;;;24.10;99.90;;;;;;5093690;28;20164;-80
2023/08/07 11:46:09;;;;;;;2.13;1.92;;;24.10;1.00;;;;;;5092489;28;20196;-79
2023/08/07 11:48:36;;;;;;;3.85;2.35;;;23.80;99.90;;;;;;5092181;28;20538;-79
2023/08/07 11:51:04;;;;;;;5.03;2.95;;;23.60;1.00;;;;;;5092534;28;20171;-79
2023/08/07 11:53:32;;;;;;;4.75;2.97;;;23.60;1.00;;;;;;5092686;28;20195;-78
2023/08/07 11:56:06;;;;;;;3.10;2.80;;;23.40;99.90;;;;;;5093082;28;20237;-79
2023/08/07 11:58:43;;;;;;;3.65;3.03;;;23.50;99.90;;;;;;5092324;28;20191;-79
2023/08/07 12:01:14;;;;;;;2.95;1.90;;;24.30;1.00;;;;;;5088589;28;20171;-78
2023/08/07 12:03:43;;;;;;;2.45;1.98;;;24.70;1.00;;;;;;5074684;28;20175;-79
2023/08/07 12:06:09;;;;;;;4.53;2.58;;;24.90;1.00;;;;;;5078479;28;20207;-78
2023/08/07 12:08:38;;;;;;;2.55;2.10;;;24.70;99.90;;;;;;5078419;28;20192;-78
2023/08/07 12:11:12;;;;;;;3.00;1.80;;;23.90;99.90;;;;;;5083211;28;20172;-78
2023/08/07 12:13:39;;;;;;;4.90;1.80;;;23.40;1.00;;;;;;5089553;28;20271;-78
2023/08/07 12:16:05;;;;;;;2.72;1.63;;;23.20;1.00;;;;;;5075689;28;20600;-80
2023/08/07 12:18:31;;;;;;;3.55;1.75;;;23.40;99.90;;;;;;5076188;28;20173;-80
2023/08/07 12:21:02;;;;;;;3.60;1.75;;;23.60;1.00;;;;;;5075523;28;20179;-82
2023/08/07 12:23:28;;;;;;;3.58;1.55;;;23.90;1.00;;;;;;5085593;28;20188;-81
2023/08/07 12:25:54;;;;;;;1.85;1.75;;;24.10;1.00;;;;;;5091019;28;20210;-80
2023/08/07 12:28:20;;;;;;;1.88;1.77;;;23.60;1.00;;;;;;5075012;28;20177;-78
2023/08/07 12:30:46;;;;;;;1.90;1.80;;;23.40;71.60;;;;;;5076912;28;20173;-78
2023/08/07 12:33:12;;;;;;;1.80;1.70;;;23.20;1.00;;;;;;5074226;28;20219;-78
2023/08/07 12:35:38;;;;;;;1.52;1.15;;;22.80;1.00;;;;;;5074697;28;20242;-78
2023/08/07 12:38:04;;;;;;;1.75;1.60;;;22.30;99.90;;;;;;5075264;28;20176;-78
2023/08/07 12:40:31;;;;;;;2.65;1.45;;;22.10;1.00;;;;;;5082617;28;20171;-77
2023/08/07 12:42:58;;;;;;;2.30;2.10;;;22.10;99.90;;;;;;5076612;28;20590;-76
2023/08/07 12:45:24;;;;;;;1.77;1.35;;;22.20;99.90;;;;;;5089138;28;20184;-78
2023/08/07 12:47:50;;;;;;;1.98;1.70;;;22.30;1.00;;;;;;5095508;28;20171;-77